sensor_id;sensor_type;location;lat;lon;timestamp;P1;durP1;ratioP1;P2;durP2;ratioP2
73642;SDS011;61938;48.652;9.292;2023-04-01T00:02:17;5.97;;;0.90;;
73642;SDS011;61938;48.652;9.292;2023-04-01T00:04:43;8.05;;;0.90;;
73642;SDS011;61938;48.652;9.292;2023-04-01T00:07:09;4.85;;;0.77;;
73642;SDS011;61938;48.652;9.292;2023-04-01T00:09:35;7.53;;;1.40;;
73642;SDS011;61938;48.652;9.292;2023-04-01T00:12:01;4.20;;;0.85;;
73642;SDS011;61938;48.652;9.292;2023-04-01T00:14:27;4.43;;;0.80;;
73642;SDS011;61938;48.652;9.292;2023-04-01T00:16:53;5.72;;;1.02;;
73642;SDS011;61938;48.652;9.292;2023-04-01T00:19:18;3.60;;;0.80;;
73642;SDS011;61938;48.652;9.292;2023-04-01T00:21:44;4.85;;;1.00;;
73642;SDS011;61938;48.652;9.292;2023-04-01T00:24:10;4.78;;;1.13;;
73642;SDS011;61938;48.652;9.292;2023-04-01T00:26:35;4.90;;;0.85;;
73642;SDS011;61938;48.652;9.292;2023-04-01T00:29:01;5.63;;;0.90;;
73642;SDS011;61938;48.652;9.292;2023-04-01T00:31:26;3.55;;;0.95;;
73642;SDS011;61938;48.652;9.292;2023-04-01T00:33:52;8.82;;;0.80;;
73642;SDS011;61938;48.652;9.292;2023-04-01T00:36:19;3.75;;;1.00;;
73642;SDS011;61938;48.652;9.292;2023-04-01T00:38:46;6.07;;;0.73;;
73642;SDS011;61938;48.652;9.292;2023-04-01T00:41:12;2.88;;;1.23;;
73642;SDS011;61938;48.652;9.292;2023-04-01T00:43:40;4.93;;;0.80;;
73642;SDS011;61938;48.652;9.292;2023-04-01T00:46:06;3.15;;;0.55;;
73642;SDS011;61938;48.652;9.292;2023-04-01T00:48:36;2.53;;;0.70;;
73642;SDS011;61938;48.652;9.292;2023-04-01T00:51:11;0.77;;;0.40;;
73642;SDS011;61938;48.652;9.292;2023-04-01T00:53:43;3.33;;;0.65;;
73642;SDS011;61938;48.652;9.292;2023-04-01T00:56:12;2.25;;;1.30;;
73642;SDS011;61938;48.652;9.292;2023-04-01T00:58:44;6.95;;;1.10;;
73642;SDS011;61938;48.652;9.292;2023-04-01T01:01:14;3.83;;;1.13;;
73642;SDS011;61938;48.652;9.292;2023-04-01T01:03:40;5.47;;;0.55;;
73642;SDS011;61938;48.652;9.292;2023-04-01T01:06:24;5.47;;;0.52;;
73642;SDS011;61938;48.652;9.292;2023-04-01T01:11:50;3.42;;;0.80;;
73642;SDS011;61938;48.652;9.292;2023-04-01T01:14:32;5.22;;;0.60;;
73642;SDS011;61938;48.652;9.292;2023-04-01T01:17:18;2.65;;;0.68;;
73642;SDS011;61938;48.652;9.292;2023-04-01T01:28:47;4.55;;;0.70;;
73642;SDS011;61938;48.652;9.292;2023-04-01T01:31:25;6.22;;;0.80;;
73642;SDS011;61938;48.652;9.292;2023-04-01T01:36:56;3.63;;;0.55;;
73642;SDS011;61938;48.652;9.292;2023-04-01T01:39:27;4.53;;;1.00;;
73642;SDS011;61938;48.652;9.292;2023-04-01T01:41:56;5.20;;;0.60;;
73642;SDS011;61938;48.652;9.292;2023-04-01T01:44:25;6.68;;;0.70;;
73642;SDS011;61938;48.652;9.292;2023-04-01T01:46:53;1.23;;;0.50;;
73642;SDS011;61938;48.652;9.292;2023-04-01T01:49:20;3.78;;;0.70;;
73642;SDS011;61938;48.652;9.292;2023-04-01T01:51:46;1.40;;;0.65;;
73642;SDS011;61938;48.652;9.292;2023-04-01T01:54:13;3.95;;;0.30;;
73642;SDS011;61938;48.652;9.292;2023-04-01T01:56:42;0.45;;;0.30;;
73642;SDS011;61938;48.652;9.292;2023-04-01T01:59:12;2.17;;;0.30;;
73642;SDS011;61938;48.652;9.292;2023-04-01T02:01:41;1.05;;;0.38;;
73642;SDS011;61938;48.652;9.292;2023-04-01T02:04:09;0.73;;;0.40;;
73642;SDS011;61938;48.652;9.292;2023-04-01T02:06:37;4.00;;;0.43;;
73642;SDS011;61938;48.652;9.292;2023-04-01T02:09:07;3.00;;;0.47;;
73642;SDS011;61938;48.652;9.292;2023-04-01T02:11:48;2.05;;;0.50;;
73642;SDS011;61938;48.652;9.292;2023-04-01T02:14:19;2.30;;;0.47;;
73642;SDS011;61938;48.652;9.292;2023-04-01T02:16:58;4.38;;;0.40;;
73642;SDS011;61938;48.652;9.292;2023-04-01T02:19:32;1.30;;;0.68;;
73642;SDS011;61938;48.652;9.292;2023-04-01T02:22:02;1.55;;;0.25;;
73642;SDS011;61938;48.652;9.292;2023-04-01T02:24:30;3.03;;;0.40;;
73642;SDS011;61938;48.652;9.292;2023-04-01T02:26:57;1.08;;;0.20;;
73642;SDS011;61938;48.652;9.292;2023-04-01T02:29:23;0.47;;;0.10;;
73642;SDS011;61938;48.652;9.292;2023-04-01T02:31:52;1.92;;;0.65;;
73642;SDS011;61938;48.652;9.292;2023-04-01T02:34:20;2.30;;;0.30;;
73642;SDS011;61938;48.652;9.292;2023-04-01T02:36:48;1.48;;;0.45;;
73642;SDS011;61938;48.652;9.292;2023-04-01T02:39:14;0.75;;;0.40;;
73642;SDS011;61938;48.652;9.292;2023-04-01T02:41:42;3.15;;;0.50;;
73642;SDS011;61938;48.652;9.292;2023-04-01T02:44:08;1.05;;;0.20;;
73642;SDS011;61938;48.652;9.292;2023-04-01T02:46:35;4.57;;;0.40;;
73642;SDS011;61938;48.652;9.292;2023-04-01T02:49:02;0.30;;;0.15;;
73642;SDS011;61938;48.652;9.292;2023-04-01T02:51:28;0.95;;;0.20;;
73642;SDS011;61938;48.652;9.292;2023-04-01T02:53:59;1.15;;;0.30;;
73642;SDS011;61938;48.652;9.292;2023-04-01T02:56:25;1.60;;;0.47;;
73642;SDS011;61938;48.652;9.292;2023-04-01T02:58:51;0.82;;;0.30;;
73642;SDS011;61938;48.652;9.292;2023-04-01T03:01:16;0.43;;;0.20;;
73642;SDS011;61938;48.652;9.292;2023-04-01T03:03:42;0.65;;;0.28;;
73642;SDS011;61938;48.652;9.292;2023-04-01T03:06:08;0.52;;;0.20;;
73642;SDS011;61938;48.652;9.292;2023-04-01T03:08:35;0.50;;;0.17;;
73642;SDS011;61938;48.652;9.292;2023-04-01T03:11:03;0.85;;;0.20;;
73642;SDS011;61938;48.652;9.292;2023-04-01T03:13:29;1.52;;;0.40;;
73642;SDS011;61938;48.652;9.292;2023-04-01T03:15:54;2.60;;;0.32;;
73642;SDS011;61938;48.652;9.292;2023-04-01T03:18:20;1.23;;;0.20;;
73642;SDS011;61938;48.652;9.292;2023-04-01T03:20:46;0.88;;;0.40;;
73642;SDS011;61938;48.652;9.292;2023-04-01T03:23:11;2.15;;;0.50;;
73642;SDS011;61938;48.652;9.292;2023-04-01T03:25:38;1.20;;;0.10;;
73642;SDS011;61938;48.652;9.292;2023-04-01T03:28:03;1.52;;;0.30;;
73642;SDS011;61938;48.652;9.292;2023-04-01T03:30:29;1.13;;;0.30;;
73642;SDS011;61938;48.652;9.292;2023-04-01T03:32:56;1.67;;;0.40;;
73642;SDS011;61938;48.652;9.292;2023-04-01T03:35:22;1.13;;;0.20;;
73642;SDS011;61938;48.652;9.292;2023-04-01T03:37:48;0.10;;;0.10;;
73642;SDS011;61938;48.652;9.292;2023-04-01T03:40:15;2.30;;;0.30;;
73642;SDS011;61938;48.652;9.292;2023-04-01T03:42:40;0.60;;;0.13;;
73642;SDS011;61938;48.652;9.292;2023-04-01T03:45:06;0.20;;;0.10;;
73642;SDS011;61938;48.652;9.292;2023-04-01T03:47:32;0.95;;;0.30;;
73642;SDS011;61938;48.652;9.292;2023-04-01T03:49:57;1.35;;;0.30;;
73642;SDS011;61938;48.652;9.292;2023-04-01T03:52:23;1.95;;;0.20;;
73642;SDS011;61938;48.652;9.292;2023-04-01T03:54:48;0.75;;;0.20;;
73642;SDS011;61938;48.652;9.292;2023-04-01T03:57:14;0.45;;;0.20;;
73642;SDS011;61938;48.652;9.292;2023-04-01T03:59:39;0.63;;;0.30;;
73642;SDS011;61938;48.652;9.292;2023-04-01T04:02:05;1.83;;;0.40;;
73642;SDS011;61938;48.652;9.292;2023-04-01T04:04:30;0.85;;;0.15;;
73642;SDS011;61938;48.652;9.292;2023-04-01T04:06:57;0.88;;;0.17;;
73642;SDS011;61938;48.652;9.292;2023-04-01T04:09:23;2.95;;;0.20;;
73642;SDS011;61938;48.652;9.292;2023-04-01T04:11:49;0.85;;;0.30;;
73642;SDS011;61938;48.652;9.292;2023-04-01T04:14:14;0.52;;;0.10;;
73642;SDS011;61938;48.652;9.292;2023-04-01T04:16:40;1.85;;;0.20;;
73642;SDS011;61938;48.652;9.292;2023-04-01T04:19:06;1.63;;;0.25;;
73642;SDS011;61938;48.652;9.292;2023-04-01T04:21:31;1.20;;;0.20;;
73642;SDS011;61938;48.652;9.292;2023-04-01T04:23:58;0.63;;;0.28;;
73642;SDS011;61938;48.652;9.292;2023-04-01T04:26:25;0.40;;;0.20;;
73642;SDS011;61938;48.652;9.292;2023-04-01T04:28:50;4.78;;;0.75;;
73642;SDS011;61938;48.652;9.292;2023-04-01T04:31:20;2.72;;;0.73;;
73642;SDS011;61938;48.652;9.292;2023-04-01T04:33:46;0.55;;;0.20;;
73642;SDS011;61938;48.652;9.292;2023-04-01T04:36:12;0.80;;;0.20;;
73642;SDS011;61938;48.652;9.292;2023-04-01T04:38:38;1.73;;;0.55;;
73642;SDS011;61938;48.652;9.292;2023-04-01T04:41:07;1.42;;;0.25;;
73642;SDS011;61938;48.652;9.292;2023-04-01T04:43:41;0.65;;;0.20;;
73642;SDS011;61938;48.652;9.292;2023-04-01T04:46:07;0.95;;;0.20;;
73642;SDS011;61938;48.652;9.292;2023-04-01T04:48:33;0.45;;;0.22;;
73642;SDS011;61938;48.652;9.292;2023-04-01T04:50:59;6.00;;;0.77;;
73642;SDS011;61938;48.652;9.292;2023-04-01T04:53:25;2.85;;;0.40;;
73642;SDS011;61938;48.652;9.292;2023-04-01T04:55:51;7.25;;;0.60;;
73642;SDS011;61938;48.652;9.292;2023-04-01T04:58:17;3.75;;;0.35;;
73642;SDS011;61938;48.652;9.292;2023-04-01T05:00:43;0.98;;;0.30;;
73642;SDS011;61938;48.652;9.292;2023-04-01T05:03:08;4.13;;;0.50;;
73642;SDS011;61938;48.652;9.292;2023-04-01T05:05:35;2.30;;;0.40;;
73642;SDS011;61938;48.652;9.292;2023-04-01T05:08:00;3.17;;;0.52;;
73642;SDS011;61938;48.652;9.292;2023-04-01T05:10:26;4.40;;;0.60;;
73642;SDS011;61938;48.652;9.292;2023-04-01T05:12:52;2.47;;;0.30;;
73642;SDS011;61938;48.652;9.292;2023-04-01T05:15:17;2.13;;;0.50;;
73642;SDS011;61938;48.652;9.292;2023-04-01T05:17:43;2.40;;;0.47;;
73642;SDS011;61938;48.652;9.292;2023-04-01T05:20:08;5.07;;;1.30;;
73642;SDS011;61938;48.652;9.292;2023-04-01T05:22:36;3.00;;;0.70;;
73642;SDS011;61938;48.652;9.292;2023-04-01T05:25:02;2.58;;;0.77;;
73642;SDS011;61938;48.652;9.292;2023-04-01T05:27:27;4.35;;;0.63;;
73642;SDS011;61938;48.652;9.292;2023-04-01T05:29:53;4.13;;;0.60;;
73642;SDS011;61938;48.652;9.292;2023-04-01T05:32:18;2.85;;;0.70;;
73642;SDS011;61938;48.652;9.292;2023-04-01T05:34:44;2.78;;;0.50;;
73642;SDS011;61938;48.652;9.292;2023-04-01T05:37:09;1.15;;;0.40;;
73642;SDS011;61938;48.652;9.292;2023-04-01T05:39:36;1.17;;;0.45;;
73642;SDS011;61938;48.652;9.292;2023-04-01T05:42:02;4.18;;;0.50;;
73642;SDS011;61938;48.652;9.292;2023-04-01T05:44:30;3.63;;;0.65;;
73642;SDS011;61938;48.652;9.292;2023-04-01T05:46:58;2.60;;;0.52;;
73642;SDS011;61938;48.652;9.292;2023-04-01T05:49:24;3.63;;;0.50;;
73642;SDS011;61938;48.652;9.292;2023-04-01T05:51:49;2.35;;;0.50;;
73642;SDS011;61938;48.652;9.292;2023-04-01T05:54:16;3.17;;;0.85;;
73642;SDS011;61938;48.652;9.292;2023-04-01T05:56:41;2.17;;;0.65;;
73642;SDS011;61938;48.652;9.292;2023-04-01T05:59:09;1.30;;;0.47;;
73642;SDS011;61938;48.652;9.292;2023-04-01T06:01:35;4.80;;;0.60;;
73642;SDS011;61938;48.652;9.292;2023-04-01T06:04:01;4.40;;;0.43;;
73642;SDS011;61938;48.652;9.292;2023-04-01T06:06:27;1.40;;;0.50;;
73642;SDS011;61938;48.652;9.292;2023-04-01T06:08:55;1.48;;;0.20;;
73642;SDS011;61938;48.652;9.292;2023-04-01T06:11:26;1.20;;;0.40;;
73642;SDS011;61938;48.652;9.292;2023-04-01T06:19:32;0.68;;;0.30;;
73642;SDS011;61938;48.652;9.292;2023-04-01T06:24:49;2.08;;;0.28;;
73642;SDS011;61938;48.652;9.292;2023-04-01T06:33:02;3.20;;;0.40;;
73642;SDS011;61938;48.652;9.292;2023-04-01T06:38:42;2.25;;;0.68;;
73642;SDS011;61938;48.652;9.292;2023-04-01T06:44:08;1.75;;;0.52;;
73642;SDS011;61938;48.652;9.292;2023-04-01T06:49:41;0.73;;;0.28;;
73642;SDS011;61938;48.652;9.292;2023-04-01T06:52:19;1.65;;;0.45;;
73642;SDS011;61938;48.652;9.292;2023-04-01T06:54:58;2.72;;;0.22;;
73642;SDS011;61938;48.652;9.292;2023-04-01T06:57:49;2.45;;;0.50;;
73642;SDS011;61938;48.652;9.292;2023-04-01T07:00:29;3.78;;;0.38;;
73642;SDS011;61938;48.652;9.292;2023-04-01T07:03:16;2.00;;;0.40;;
73642;SDS011;61938;48.652;9.292;2023-04-01T07:05:51;1.35;;;0.95;;
73642;SDS011;61938;48.652;9.292;2023-04-01T07:08:20;2.83;;;0.40;;
73642;SDS011;61938;48.652;9.292;2023-04-01T07:10:52;3.38;;;0.38;;
73642;SDS011;61938;48.652;9.292;2023-04-01T07:16:06;2.53;;;0.40;;
73642;SDS011;61938;48.652;9.292;2023-04-01T07:19:00;4.32;;;0.40;;
73642;SDS011;61938;48.652;9.292;2023-04-01T07:21:34;0.87;;;0.43;;
73642;SDS011;61938;48.652;9.292;2023-04-01T07:24:09;2.60;;;0.40;;
73642;SDS011;61938;48.652;9.292;2023-04-01T07:26:57;3.58;;;0.55;;
73642;SDS011;61938;48.652;9.292;2023-04-01T07:29:23;1.45;;;0.40;;
73642;SDS011;61938;48.652;9.292;2023-04-01T07:31:54;2.75;;;0.43;;
73642;SDS011;61938;48.652;9.292;2023-04-01T07:34:25;5.55;;;0.50;;
73642;SDS011;61938;48.652;9.292;2023-04-01T07:42:34;2.25;;;0.57;;
73642;SDS011;61938;48.652;9.292;2023-04-01T07:48:07;1.60;;;0.60;;
73642;SDS011;61938;48.652;9.292;2023-04-01T07:56:32;3.80;;;0.63;;
73642;SDS011;61938;48.652;9.292;2023-04-01T07:59:27;3.47;;;0.52;;
73642;SDS011;61938;48.652;9.292;2023-04-01T08:07:17;2.45;;;0.85;;
73642;SDS011;61938;48.652;9.292;2023-04-01T08:09:54;3.72;;;0.70;;
73642;SDS011;61938;48.652;9.292;2023-04-01T08:17:56;6.82;;;1.42;;
73642;SDS011;61938;48.652;9.292;2023-04-01T08:20:46;0.95;;;0.43;;
73642;SDS011;61938;48.652;9.292;2023-04-01T08:23:24;2.72;;;0.90;;
73642;SDS011;61938;48.652;9.292;2023-04-01T08:29:00;3.03;;;0.45;;
73642;SDS011;61938;48.652;9.292;2023-04-01T08:34:29;0.80;;;0.40;;
73642;SDS011;61938;48.652;9.292;2023-04-01T08:37:23;2.05;;;0.60;;
73642;SDS011;61938;48.652;9.292;2023-04-01T08:39:55;3.08;;;0.57;;
73642;SDS011;61938;48.652;9.292;2023-04-01T08:45:21;2.00;;;0.68;;
73642;SDS011;61938;48.652;9.292;2023-04-01T08:56:40;1.00;;;0.50;;
73642;SDS011;61938;48.652;9.292;2023-04-01T09:01:51;1.23;;;0.47;;
73642;SDS011;61938;48.652;9.292;2023-04-01T09:04:33;1.95;;;0.77;;
73642;SDS011;61938;48.652;9.292;2023-04-01T09:07:35;1.23;;;0.30;;
73642;SDS011;61938;48.652;9.292;2023-04-01T09:16:06;2.17;;;0.65;;
73642;SDS011;61938;48.652;9.292;2023-04-01T09:24:29;2.53;;;0.50;;
73642;SDS011;61938;48.652;9.292;2023-04-01T09:38:58;1.52;;;0.50;;
73642;SDS011;61938;48.652;9.292;2023-04-01T09:50:17;1.45;;;0.45;;
73642;SDS011;61938;48.652;9.292;2023-04-01T09:55:56;1.95;;;0.70;;
73642;SDS011;61938;48.652;9.292;2023-04-01T09:59:08;2.75;;;0.82;;
73642;SDS011;61938;48.652;9.292;2023-04-01T10:04:30;4.30;;;0.60;;
73642;SDS011;61938;48.652;9.292;2023-04-01T10:15:16;2.63;;;0.80;;
73642;SDS011;61938;48.652;9.292;2023-04-01T10:20:59;2.75;;;0.90;;
73642;SDS011;61938;48.652;9.292;2023-04-01T10:23:40;2.83;;;0.55;;
73642;SDS011;61938;48.652;9.292;2023-04-01T11:06:08;1.60;;;0.70;;
73642;SDS011;61938;48.652;9.292;2023-04-01T11:17:35;1.95;;;0.52;;
73642;SDS011;61938;48.652;9.292;2023-04-01T11:23:10;1.23;;;0.82;;
73642;SDS011;61938;48.652;9.292;2023-04-01T11:28:36;0.95;;;0.50;;
73642;SDS011;61938;48.652;9.292;2023-04-01T11:39:33;3.00;;;0.40;;
73642;SDS011;61938;48.652;9.292;2023-04-01T11:44:58;2.75;;;1.05;;
73642;SDS011;61938;48.652;9.292;2023-04-01T11:47:56;2.42;;;0.90;;
73642;SDS011;61938;48.652;9.292;2023-04-01T11:50:44;0.82;;;0.43;;
73642;SDS011;61938;48.652;9.292;2023-04-01T12:03:38;1.23;;;0.50;;
73642;SDS011;61938;48.652;9.292;2023-04-01T12:06:18;0.85;;;0.50;;
73642;SDS011;61938;48.652;9.292;2023-04-01T12:08:50;3.05;;;0.57;;
73642;SDS011;61938;48.652;9.292;2023-04-01T12:27:59;1.55;;;0.95;;
73642;SDS011;61938;48.652;9.292;2023-04-01T12:36:19;3.40;;;1.60;;
73642;SDS011;61938;48.652;9.292;2023-04-01T12:42:30;0.85;;;0.50;;
73642;SDS011;61938;48.652;9.292;2023-04-01T12:53:36;0.40;;;0.40;;
73642;SDS011;61938;48.652;9.292;2023-04-01T13:07:38;0.88;;;0.30;;
73642;SDS011;61938;48.652;9.292;2023-04-01T13:10:20;1.55;;;0.38;;
73642;SDS011;61938;48.652;9.292;2023-04-01T13:13:09;0.17;;;0.13;;
73642;SDS011;61938;48.652;9.292;2023-04-01T13:16:01;1.00;;;0.25;;
73642;SDS011;61938;48.652;9.292;2023-04-01T13:18:39;1.75;;;0.35;;
73642;SDS011;61938;48.652;9.292;2023-04-01T13:26:22;0.57;;;0.45;;
73642;SDS011;61938;48.652;9.292;2023-04-01T13:31:38;6.43;;;0.52;;
73642;SDS011;61938;48.652;9.292;2023-04-01T13:34:22;0.50;;;0.22;;
73642;SDS011;61938;48.652;9.292;2023-04-01T13:42:49;3.25;;;0.85;;
73642;SDS011;61938;48.652;9.292;2023-04-01T13:45:38;1.52;;;0.75;;
73642;SDS011;61938;48.652;9.292;2023-04-01T13:54:17;2.17;;;0.60;;
73642;SDS011;61938;48.652;9.292;2023-04-01T13:57:07;2.75;;;0.75;;
73642;SDS011;61938;48.652;9.292;2023-04-01T14:02:24;8.75;;;2.83;;
73642;SDS011;61938;48.652;9.292;2023-04-01T14:10:42;1.20;;;0.63;;
73642;SDS011;61938;48.652;9.292;2023-04-01T14:13:18;4.90;;;1.00;;
73642;SDS011;61938;48.652;9.292;2023-04-01T14:16:11;1.15;;;0.63;;
73642;SDS011;61938;48.652;9.292;2023-04-01T14:18:47;1.02;;;0.47;;
73642;SDS011;61938;48.652;9.292;2023-04-01T14:21:37;4.20;;;0.70;;
73642;SDS011;61938;48.652;9.292;2023-04-01T14:24:20;0.52;;;0.40;;
73642;SDS011;61938;48.652;9.292;2023-04-01T14:27:25;0.98;;;0.50;;
73642;SDS011;61938;48.652;9.292;2023-04-01T14:30:35;0.90;;;0.40;;
73642;SDS011;61938;48.652;9.292;2023-04-01T14:36:16;1.92;;;0.73;;
73642;SDS011;61938;48.652;9.292;2023-04-01T14:44:28;3.47;;;0.50;;
73642;SDS011;61938;48.652;9.292;2023-04-01T14:47:11;1.35;;;0.40;;
73642;SDS011;61938;48.652;9.292;2023-04-01T14:49:51;0.52;;;0.40;;
73642;SDS011;61938;48.652;9.292;2023-04-01T14:52:23;1.08;;;0.60;;
73642;SDS011;61938;48.652;9.292;2023-04-01T14:54:55;1.38;;;0.60;;
73642;SDS011;61938;48.652;9.292;2023-04-01T14:57:29;0.93;;;0.57;;
73642;SDS011;61938;48.652;9.292;2023-04-01T15:13:48;0.30;;;0.30;;
73642;SDS011;61938;48.652;9.292;2023-04-01T15:16:45;0.40;;;0.30;;
73642;SDS011;61938;48.652;9.292;2023-04-01T15:19:48;2.05;;;0.30;;
73642;SDS011;61938;48.652;9.292;2023-04-01T15:25:31;2.15;;;0.30;;
73642;SDS011;61938;48.652;9.292;2023-04-01T15:28:21;3.67;;;0.43;;
73642;SDS011;61938;48.652;9.292;2023-04-01T15:31:01;1.83;;;0.52;;
73642;SDS011;61938;48.652;9.292;2023-04-01T15:33:53;2.85;;;0.50;;
73642;SDS011;61938;48.652;9.292;2023-04-01T15:39:23;1.52;;;0.70;;
73642;SDS011;61938;48.652;9.292;2023-04-01T15:58:03;2.55;;;0.65;;
73642;SDS011;61938;48.652;9.292;2023-04-01T16:01:04;2.38;;;0.60;;
73642;SDS011;61938;48.652;9.292;2023-04-01T16:15:42;2.65;;;0.80;;
73642;SDS011;61938;48.652;9.292;2023-04-01T16:21:11;2.53;;;1.05;;
73642;SDS011;61938;48.652;9.292;2023-04-01T16:23:50;5.05;;;2.00;;
73642;SDS011;61938;48.652;9.292;2023-04-01T16:26:28;1.00;;;0.50;;
73642;SDS011;61938;48.652;9.292;2023-04-01T16:37:13;1.73;;;0.75;;
73642;SDS011;61938;48.652;9.292;2023-04-01T16:39:53;4.95;;;2.05;;
73642;SDS011;61938;48.652;9.292;2023-04-01T16:47:56;3.53;;;1.20;;
73642;SDS011;61938;48.652;9.292;2023-04-01T16:50:38;3.25;;;1.60;;
73642;SDS011;61938;48.652;9.292;2023-04-01T16:55:54;10.27;;;3.20;;
73642;SDS011;61938;48.652;9.292;2023-04-01T16:58:27;7.78;;;3.42;;
73642;SDS011;61938;48.652;9.292;2023-04-01T17:01:02;7.25;;;2.83;;
73642;SDS011;61938;48.652;9.292;2023-04-01T17:03:40;5.35;;;1.98;;
73642;SDS011;61938;48.652;9.292;2023-04-01T17:11:56;7.35;;;2.83;;
73642;SDS011;61938;48.652;9.292;2023-04-01T17:14:28;4.53;;;1.25;;
73642;SDS011;61938;48.652;9.292;2023-04-01T17:19:55;1.92;;;0.85;;
73642;SDS011;61938;48.652;9.292;2023-04-01T17:25:39;4.97;;;1.70;;
73642;SDS011;61938;48.652;9.292;2023-04-01T17:31:33;5.82;;;1.88;;
73642;SDS011;61938;48.652;9.292;2023-04-01T17:39:46;3.08;;;1.45;;
73642;SDS011;61938;48.652;9.292;2023-04-01T17:42:43;3.70;;;1.48;;
73642;SDS011;61938;48.652;9.292;2023-04-01T17:45:21;6.43;;;2.50;;
73642;SDS011;61938;48.652;9.292;2023-04-01T17:59:37;2.47;;;1.30;;
73642;SDS011;61938;48.652;9.292;2023-04-01T18:17:17;2.25;;;1.25;;
73642;SDS011;61938;48.652;9.292;2023-04-01T18:25:19;2.67;;;1.00;;
73642;SDS011;61938;48.652;9.292;2023-04-01T18:30:57;1.75;;;0.70;;
73642;SDS011;61938;48.652;9.292;2023-04-01T18:36:18;2.60;;;0.90;;
73642;SDS011;61938;48.652;9.292;2023-04-01T18:39:22;2.55;;;0.95;;
73642;SDS011;61938;48.652;9.292;2023-04-01T18:42:08;2.60;;;1.00;;
73642;SDS011;61938;48.652;9.292;2023-04-01T18:49:53;4.55;;;1.65;;
73642;SDS011;61938;48.652;9.292;2023-04-01T18:52:40;3.60;;;1.20;;
73642;SDS011;61938;48.652;9.292;2023-04-01T18:55:20;4.00;;;1.50;;
73642;SDS011;61938;48.652;9.292;2023-04-01T18:57:54;2.55;;;1.35;;
73642;SDS011;61938;48.652;9.292;2023-04-01T19:00:38;4.05;;;1.40;;
73642;SDS011;61938;48.652;9.292;2023-04-01T19:06:14;1.92;;;1.02;;
73642;SDS011;61938;48.652;9.292;2023-04-01T19:08:44;1.98;;;0.95;;
73642;SDS011;61938;48.652;9.292;2023-04-01T19:16:42;2.55;;;1.30;;
73642;SDS011;61938;48.652;9.292;2023-04-01T19:21:56;2.83;;;1.42;;
73642;SDS011;61938;48.652;9.292;2023-04-01T19:24:40;5.65;;;1.70;;
73642;SDS011;61938;48.652;9.292;2023-04-01T19:40:57;2.80;;;1.50;;
73642;SDS011;61938;48.652;9.292;2023-04-01T19:43:46;4.75;;;1.88;;
73642;SDS011;61938;48.652;9.292;2023-04-01T19:46:33;3.00;;;1.40;;
73642;SDS011;61938;48.652;9.292;2023-04-01T19:57:14;5.55;;;2.15;;
73642;SDS011;61938;48.652;9.292;2023-04-01T20:00:00;2.60;;;1.65;;
73642;SDS011;61938;48.652;9.292;2023-04-01T20:05:20;3.47;;;1.30;;
73642;SDS011;61938;48.652;9.292;2023-04-01T20:16:17;4.72;;;2.80;;
73642;SDS011;61938;48.652;9.292;2023-04-01T20:18:56;4.40;;;2.22;;
73642;SDS011;61938;48.652;9.292;2023-04-01T20:26:39;5.10;;;2.50;;
73642;SDS011;61938;48.652;9.292;2023-04-01T20:32:38;4.45;;;1.80;;
73642;SDS011;61938;48.652;9.292;2023-04-01T20:37:48;3.08;;;1.75;;
73642;SDS011;61938;48.652;9.292;2023-04-01T20:40:29;2.60;;;1.73;;
73642;SDS011;61938;48.652;9.292;2023-04-01T20:43:20;3.28;;;1.83;;
73642;SDS011;61938;48.652;9.292;2023-04-01T20:52:00;8.82;;;3.55;;
73642;SDS011;61938;48.652;9.292;2023-04-01T20:54:40;7.38;;;3.78;;
73642;SDS011;61938;48.652;9.292;2023-04-01T20:57:32;3.70;;;2.47;;
73642;SDS011;61938;48.652;9.292;2023-04-01T21:03:08;4.85;;;2.10;;
73642;SDS011;61938;48.652;9.292;2023-04-01T21:09:11;3.90;;;2.00;;
73642;SDS011;61938;48.652;9.292;2023-04-01T21:14:33;5.35;;;2.42;;
73642;SDS011;61938;48.652;9.292;2023-04-01T21:19:51;3.33;;;1.77;;
73642;SDS011;61938;48.652;9.292;2023-04-01T21:25:16;2.33;;;1.27;;
73642;SDS011;61938;48.652;9.292;2023-04-01T21:33:39;1.98;;;1.00;;
73642;SDS011;61938;48.652;9.292;2023-04-01T21:42:02;2.15;;;1.20;;
73642;SDS011;61938;48.652;9.292;2023-04-01T21:47:29;2.83;;;1.20;;
73642;SDS011;61938;48.652;9.292;2023-04-01T21:50:34;2.95;;;1.25;;
73642;SDS011;61938;48.652;9.292;2023-04-01T22:07:25;2.10;;;1.20;;
73642;SDS011;61938;48.652;9.292;2023-04-01T22:23:37;6.25;;;2.95;;
73642;SDS011;61938;48.652;9.292;2023-04-01T22:26:16;3.85;;;1.50;;
73642;SDS011;61938;48.652;9.292;2023-04-01T22:31:25;5.35;;;2.47;;
73642;SDS011;61938;48.652;9.292;2023-04-01T22:33:58;8.73;;;2.75;;
73642;SDS011;61938;48.652;9.292;2023-04-01T22:39:32;7.75;;;3.45;;
73642;SDS011;61938;48.652;9.292;2023-04-01T22:50:16;3.92;;;1.70;;
73642;SDS011;61938;48.652;9.292;2023-04-01T22:52:44;4.50;;;1.02;;
73642;SDS011;61938;48.652;9.292;2023-04-01T22:55:14;2.45;;;1.00;;
73642;SDS011;61938;48.652;9.292;2023-04-01T22:57:47;2.85;;;1.20;;
73642;SDS011;61938;48.652;9.292;2023-04-01T23:00:22;2.22;;;1.15;;
73642;SDS011;61938;48.652;9.292;2023-04-01T23:03:10;3.08;;;1.08;;
73642;SDS011;61938;48.652;9.292;2023-04-01T23:05:57;2.55;;;1.10;;
73642;SDS011;61938;48.652;9.292;2023-04-01T23:11:47;2.58;;;1.25;;
73642;SDS011;61938;48.652;9.292;2023-04-01T23:16:54;3.17;;;1.20;;
73642;SDS011;61938;48.652;9.292;2023-04-01T23:19:36;4.07;;;1.42;;
73642;SDS011;61938;48.652;9.292;2023-04-01T23:25:05;2.75;;;1.35;;
73642;SDS011;61938;48.652;9.292;2023-04-01T23:27:56;1.80;;;0.85;;
73642;SDS011;61938;48.652;9.292;2023-04-01T23:35:47;1.88;;;1.02;;
73642;SDS011;61938;48.652;9.292;2023-04-01T23:38:14;2.93;;;0.97;;
73642;SDS011;61938;48.652;9.292;2023-04-01T23:40:40;1.92;;;1.00;;
73642;SDS011;61938;48.652;9.292;2023-04-01T23:43:25;1.23;;;0.65;;
73642;SDS011;61938;48.652;9.292;2023-04-01T23:45:56;1.70;;;0.77;;
73642;SDS011;61938;48.652;9.292;2023-04-01T23:48:26;1.52;;;0.63;;
73642;SDS011;61938;48.652;9.292;2023-04-01T23:53:26;3.30;;;0.82;;
73642;SDS011;61938;48.652;9.292;2023-04-01T23:55:55;3.10;;;0.65;;
73642;SDS011;61938;48.652;9.292;2023-04-01T23:58:54;2.58;;;0.80;;
